Time;durP1;ratioP1;P1;durP2;ratioP2;P2;SDS_P1;SDS_P2;PMS_P1;PMS_P2;Temp;Humidity;BMP_temperature;BMP_pressure;BME280_temperature;BME280_humidity;BME280_pressure;Samples;Min_cycle;Max_cycle;Signal;HPM_P1;HPM_P2
2022/06/28 00:01:10;;;;;;;9.07;8.27;;;23.30;99.90;;;;;;5029684;28;20076;-78
2022/06/28 00:03:38;;;;;;;9.48;8.50;;;23.30;99.90;;;;;;5030717;28;20045;-77
2022/06/28 00:06:05;;;;;;;8.35;7.65;;;23.20;99.90;;;;;;5029341;28;20053;-78
2022/06/28 00:08:32;;;;;;;8.40;7.70;;;23.20;99.90;;;;;;5029032;28;20460;-78
2022/06/28 00:11:00;;;;;;;10.13;8.00;;;23.20;99.90;;;;;;5028943;28;20156;-79
2022/06/28 00:13:29;;;;;;;9.73;8.82;;;23.10;99.90;;;;;;5030749;28;20081;-76
2022/06/28 00:16:08;;;;;;;10.27;8.15;;;23.10;99.90;;;;;;5028633;28;20069;-75
2022/06/28 00:18:38;;;;;;;9.20;8.35;;;23.00;99.90;;;;;;5032624;28;20123;-76
2022/06/28 00:21:07;;;;;;;9.07;8.43;;;23.00;99.90;;;;;;5033196;28;20107;-76
2022/06/28 00:23:35;;;;;;;8.88;8.18;;;23.00;99.90;;;;;;5016191;28;20053;-76
2022/06/28 00:26:02;;;;;;;9.98;8.20;;;23.00;99.90;;;;;;5032869;28;20514;-77
2022/06/28 00:28:31;;;;;;;9.07;8.38;;;22.90;99.90;;;;;;5016363;28;20125;-77
2022/06/28 00:30:58;;;;;;;8.35;7.50;;;22.90;99.90;;;;;;5032522;28;20087;-77
2022/06/28 00:33:26;;;;;;;8.70;7.97;;;22.90;99.90;;;;;;5016071;28;20140;-77
2022/06/28 00:35:53;;;;;;;10.00;8.32;;;22.80;99.90;;;;;;5034734;28;20052;-77
2022/06/28 00:38:20;;;;;;;8.60;7.90;;;22.80;99.90;;;;;;5032875;28;20096;-77
2022/06/28 00:40:49;;;;;;;8.75;8.00;;;22.70;99.90;;;;;;5034381;28;20144;-77
2022/06/28 00:43:18;;;;;;;9.68;7.93;;;22.70;99.90;;;;;;5033090;28;20413;-77
2022/06/28 00:45:48;;;;;;;10.30;7.45;;;22.70;99.90;;;;;;5033096;28;20046;-77
2022/06/28 00:48:18;;;;;;;10.43;7.28;;;22.60;99.90;;;;;;5034623;28;20061;-78
2022/06/28 00:50:45;;;;;;;12.40;7.25;;;22.60;99.90;;;;;;5033092;28;20144;-78
2022/06/28 00:53:14;;;;;;;7.18;6.57;;;22.60;99.90;;;;;;5033869;28;20091;-78
2022/06/28 00:55:43;;;;;;;8.40;6.88;;;22.60;99.90;;;;;;5033019;28;20049;-77
2022/06/28 00:58:11;;;;;;;10.30;7.22;;;22.50;99.90;;;;;;5033392;28;20627;-78
2022/06/28 01:00:41;;;;;;;9.40;7.15;;;22.50;99.90;;;;;;5033377;28;20135;-77
2022/06/28 01:03:14;;;;;;;6.95;6.40;;;22.50;99.90;;;;;;5032276;28;20517;-77
2022/06/28 01:05:45;;;;;;;10.57;6.82;;;22.50;99.90;;;;;;5032239;28;20255;-78
2022/06/28 01:08:14;;;;;;;7.55;6.80;;;22.50;99.90;;;;;;5032621;28;20099;-78
2022/06/28 01:10:42;;;;;;;8.30;6.82;;;22.50;99.90;;;;;;5032485;28;20080;-78
2022/06/28 01:13:12;;;;;;;8.15;7.32;;;22.40;99.90;;;;;;5015881;28;20421;-78
2022/06/28 01:15:42;;;;;;;7.38;6.65;;;22.40;99.90;;;;;;5032692;28;20053;-78
2022/06/28 01:18:13;;;;;;;7.25;6.55;;;22.40;99.90;;;;;;5032375;28;20184;-78
2022/06/28 01:20:44;;;;;;;8.40;6.80;;;22.40;99.90;;;;;;5032120;28;20140;-78
2022/06/28 01:23:28;;;;;;;12.18;6.65;;;22.40;99.90;;;;;;5032542;28;20505;-78
2022/06/28 01:26:21;;;;;;;9.25;6.18;;;22.30;99.90;;;;;;5015802;28;20052;-78
2022/06/28 01:28:49;;;;;;;10.50;6.57;;;22.30;99.90;;;;;;5015102;28;20046;-78
2022/06/28 01:31:34;;;;;;;9.13;6.63;;;22.30;99.90;;;;;;5031664;28;20164;-78
2022/06/28 01:34:02;;;;;;;9.60;6.57;;;22.30;99.90;;;;;;5031409;28;20049;-79
2022/06/28 01:36:30;;;;;;;6.75;6.15;;;22.30;99.90;;;;;;5031890;28;20053;-78
2022/06/28 01:39:04;;;;;;;6.97;6.00;;;22.30;99.90;;;;;;5015430;28;20406;-78
2022/06/28 01:41:36;;;;;;;11.80;6.85;;;22.30;99.90;;;;;;5031805;28;20053;-78
2022/06/28 01:44:14;;;;;;;8.93;6.57;;;22.20;99.90;;;;;;5014837;28;20151;-78
2022/06/28 01:47:02;;;;;;;7.43;6.72;;;22.20;99.90;;;;;;5032751;28;20057;-77
2022/06/28 01:49:59;;;;;;;8.60;5.80;;;22.20;99.90;;;;;;5032721;28;20052;-77
2022/06/28 01:52:31;;;;;;;8.52;6.22;;;22.20;99.90;;;;;;5015452;28;20053;-78
2022/06/28 01:55:10;;;;;;;6.97;6.28;;;22.20;99.90;;;;;;5015024;28;20045;-78
2022/06/28 01:57:41;;;;;;;8.13;6.00;;;22.20;99.90;;;;;;5031577;28;20099;-78
2022/06/28 02:00:10;;;;;;;9.65;6.22;;;22.10;99.90;;;;;;5014809;28;20057;-77
2022/06/28 02:02:43;;;;;;;9.90;6.25;;;22.10;99.90;;;;;;5031522;28;20083;-78
2022/06/28 02:05:34;;;;;;;10.23;6.28;;;22.10;99.90;;;;;;5032378;28;20053;-78
2022/06/28 02:08:05;;;;;;;9.30;6.30;;;22.10;99.90;;;;;;5031131;28;20088;-78
2022/06/28 02:10:53;;;;;;;7.65;6.18;;;22.10;99.90;;;;;;5032467;28;20049;-79
2022/06/28 02:13:20;;;;;;;7.10;5.45;;;22.10;99.90;;;;;;5032313;28;20357;-79
2022/06/28 02:15:48;;;;;;;8.20;5.63;;;22.10;99.90;;;;;;5014637;28;20060;-79
2022/06/28 02:18:16;;;;;;;6.45;5.45;;;22.10;99.90;;;;;;5030994;28;20057;-79
2022/06/28 02:20:44;;;;;;;6.78;6.03;;;22.00;99.90;;;;;;5014402;28;20076;-79
2022/06/28 02:23:12;;;;;;;7.07;6.20;;;22.10;99.90;;;;;;5015265;28;20140;-79
2022/06/28 02:25:40;;;;;;;10.38;5.57;;;22.10;99.90;;;;;;5031136;28;20506;-79
2022/06/28 02:28:08;;;;;;;7.20;5.25;;;22.00;99.90;;;;;;5014507;28;20052;-79
2022/06/28 02:30:36;;;;;;;11.13;5.82;;;22.00;99.90;;;;;;5032012;28;20140;-79
2022/06/28 02:33:03;;;;;;;6.30;5.10;;;22.00;99.90;;;;;;5032483;28;20518;-77
2022/06/28 02:41:00;;;;;;;5.95;5.40;;;22.00;99.90;;;;;;5013839;28;20072;-77
2022/06/28 02:43:29;;;;;;;8.05;6.38;;;21.90;99.90;;;;;;5030836;28;20045;-77
2022/06/28 02:45:56;;;;;;;6.32;5.70;;;21.90;99.90;;;;;;5014089;28;20049;-78
2022/06/28 02:48:23;;;;;;;7.35;5.38;;;21.90;99.90;;;;;;5030488;28;20428;-77
2022/06/28 02:50:51;;;;;;;6.40;5.82;;;21.80;99.90;;;;;;5030360;28;20046;-78
2022/06/28 02:53:18;;;;;;;7.93;4.97;;;21.80;99.90;;;;;;5030661;28;20099;-77
2022/06/28 02:55:45;;;;;;;6.30;5.78;;;21.80;99.90;;;;;;5030203;28;20419;-78
2022/06/28 02:58:13;;;;;;;6.55;5.43;;;21.70;99.90;;;;;;5013290;28;20077;-78
2022/06/28 03:00:42;;;;;;;11.05;5.38;;;21.80;99.90;;;;;;5029857;28;20048;-79
2022/06/28 03:03:09;;;;;;;8.63;4.97;;;21.80;99.90;;;;;;5031302;28;20058;-79
2022/06/28 03:05:37;;;;;;;5.93;5.00;;;21.80;99.90;;;;;;5013823;28;20076;-79
2022/06/28 03:08:04;;;;;;;5.07;4.65;;;21.70;99.90;;;;;;5013770;28;20449;-77
2022/06/28 03:10:35;;;;;;;8.60;4.97;;;21.70;99.90;;;;;;5024886;28;20141;-77
2022/06/28 03:13:02;;;;;;;7.28;4.95;;;21.70;99.90;;;;;;5025278;28;20548;-78
2022/06/28 03:15:31;;;;;;;9.23;6.25;;;21.70;99.90;;;;;;5029886;28;20053;-77
2022/06/28 03:18:00;;;;;;;6.68;5.63;;;21.70;99.90;;;;;;5030225;28;20057;-78
2022/06/28 03:20:28;;;;;;;5.40;4.80;;;21.70;99.90;;;;;;5030061;28;20144;-78
2022/06/28 03:22:55;;;;;;;7.55;4.78;;;21.70;99.90;;;;;;5029999;28;20045;-79
2022/06/28 03:25:23;;;;;;;4.85;4.30;;;21.70;99.90;;;;;;5030234;28;20060;-79
2022/06/28 03:27:53;;;;;;;7.50;4.72;;;21.70;99.90;;;;;;5003271;28;20414;-78
2022/06/28 03:30:20;;;;;;;4.68;4.20;;;21.70;99.90;;;;;;5010713;28;20050;-79
2022/06/28 03:32:48;;;;;;;5.05;4.45;;;21.70;99.90;;;;;;5027310;28;20049;-79
2022/06/28 03:35:24;;;;;;;4.55;4.10;;;21.70;99.90;;;;;;5020427;28;20046;-79
2022/06/28 03:37:51;;;;;;;6.25;4.38;;;21.70;99.90;;;;;;5001558;28;20073;-79
2022/06/28 03:40:20;;;;;;;5.43;4.90;;;21.70;99.90;;;;;;5005389;28;20073;-79
2022/06/28 03:42:49;;;;;;;9.73;4.60;;;21.70;99.90;;;;;;5017950;28;20050;-78
2022/06/28 03:45:17;;;;;;;6.45;4.50;;;21.70;99.90;;;;;;5017611;28;20088;-79
2022/06/28 03:47:56;;;;;;;7.43;4.38;;;21.80;99.90;;;;;;5019664;28;20045;-78
2022/06/28 03:50:43;;;;;;;8.45;4.38;;;21.80;99.90;;;;;;5019885;28;20493;-78
2022/06/28 03:53:19;;;;;;;5.80;3.80;;;21.90;99.90;;;;;;5020071;28;20144;-78
2022/06/28 03:55:59;;;;;;;7.30;4.00;;;21.90;99.90;;;;;;5019051;28;20049;-77
2022/06/28 03:58:26;;;;;;;5.13;3.55;;;22.00;99.90;;;;;;5003759;28;20045;-78
2022/06/28 04:00:54;;;;;;;7.45;3.75;;;22.10;99.90;;;;;;5019895;28;20042;-77
2022/06/28 04:03:21;;;;;;;7.70;3.92;;;22.10;99.90;;;;;;5002702;28;20057;-77
2022/06/28 04:05:50;;;;;;;8.90;4.30;;;22.10;99.90;;;;;;5019251;28;20518;-77
2022/06/28 04:08:17;;;;;;;6.93;3.97;;;22.20;99.90;;;;;;5000519;28;20103;-77
2022/06/28 04:10:48;;;;;;;6.43;3.65;;;22.20;99.90;;;;;;5018308;28;20598;-77
2022/06/28 04:13:19;;;;;;;8.82;3.92;;;22.30;99.90;;;;;;5022064;28;20381;-77
2022/06/28 04:15:47;;;;;;;7.95;4.38;;;22.30;99.90;;;;;;5004138;28;20421;-78
2022/06/28 04:18:20;;;;;;;6.65;4.00;;;22.40;99.90;;;;;;5017073;28;20081;-77
2022/06/28 04:21:13;;;;;;;7.15;3.97;;;22.40;99.90;;;;;;5019948;28;20049;-78
2022/06/28 04:23:40;;;;;;;6.55;4.47;;;22.40;99.90;;;;;;5021276;28;20054;-79
2022/06/28 04:26:08;;;;;;;9.35;3.70;;;22.50;99.90;;;;;;5017946;28;20073;-78
2022/06/28 04:28:42;;;;;;;6.28;4.07;;;22.60;99.90;;;;;;5000026;28;20056;-78
2022/06/28 04:31:16;;;;;;;10.05;4.40;;;22.60;99.90;;;;;;5000893;28;20219;-78
2022/06/28 04:33:44;;;;;;;8.45;4.10;;;22.70;99.90;;;;;;5016500;28;20092;-78
2022/06/28 04:36:15;;;;;;;6.75;3.70;;;22.70;99.90;;;;;;5019278;28;20480;-78
2022/06/28 04:38:47;;;;;;;5.65;3.85;;;22.70;99.90;;;;;;5018940;28;20049;-78
2022/06/28 04:41:24;;;;;;;8.38;4.78;;;22.80;99.90;;;;;;5016538;28;20061;-77
2022/06/28 04:44:04;;;;;;;6.75;3.88;;;22.90;99.90;;;;;;5019505;28;20481;-77
2022/06/28 04:46:35;;;;;;;15.30;4.68;;;22.90;99.90;;;;;;5017483;28;20123;-78
2022/06/28 04:49:05;;;;;;;9.93;3.58;;;23.00;99.90;;;;;;5018374;28;20046;-77
2022/06/28 04:51:45;;;;;;;18.60;5.22;;;23.00;99.90;;;;;;5019574;28;20041;-78
2022/06/28 04:54:19;;;;;;;9.43;4.22;;;23.10;99.90;;;;;;4999803;28;20507;-78
2022/06/28 04:57:05;;;;;;;4.07;3.40;;;23.10;99.90;;;;;;5015801;28;20095;-78
2022/06/28 04:59:33;;;;;;;5.93;3.53;;;23.20;99.90;;;;;;5003797;28;20485;-78
2022/06/28 05:02:04;;;;;;;6.32;4.00;;;23.20;99.90;;;;;;5002547;28;20049;-78
2022/06/28 05:04:32;;;;;;;4.68;3.65;;;23.20;99.90;;;;;;5022991;28;20081;-78
2022/06/28 05:07:21;;;;;;;3.58;3.28;;;23.30;99.90;;;;;;5016312;28;20050;-78
2022/06/28 05:09:48;;;;;;;7.05;3.45;;;23.30;99.90;;;;;;5027163;28;20531;-78
2022/06/28 05:12:16;;;;;;;10.70;3.38;;;23.30;99.90;;;;;;5033457;28;20084;-80
2022/06/28 05:14:43;;;;;;;5.30;3.20;;;23.30;99.90;;;;;;5015498;28;20045;-77
2022/06/28 05:17:13;;;;;;;5.60;3.38;;;23.50;99.90;;;;;;5030429;28;20095;-78
2022/06/28 05:19:40;;;;;;;11.95;3.13;;;23.50;99.90;;;;;;5031980;28;20472;-78
2022/06/28 05:22:09;;;;;;;9.30;3.10;;;23.60;99.90;;;;;;5032256;28;20049;-78
2022/06/28 05:24:49;;;;;;;5.80;3.50;;;23.70;99.90;;;;;;5015716;28;20060;-78
2022/06/28 05:27:17;;;;;;;3.88;3.17;;;23.90;99.90;;;;;;5032382;28;20447;-79
2022/06/28 05:29:44;;;;;;;6.18;3.20;;;24.00;99.90;;;;;;5015412;28;20045;-78
2022/06/28 05:32:11;;;;;;;7.95;3.25;;;24.20;99.90;;;;;;5031727;28;20132;-78
2022/06/28 05:34:40;;;;;;;7.65;4.07;;;24.40;99.90;;;;;;5031148;28;20053;-78
2022/06/28 05:37:07;;;;;;;24.00;7.78;;;24.50;99.90;;;;;;5031976;28;20077;-78
2022/06/28 05:39:35;;;;;;;4.30;3.00;;;24.70;99.90;;;;;;5031334;28;20505;-77
2022/06/28 05:42:04;;;;;;;6.15;3.28;;;24.90;99.90;;;;;;5015611;28;20068;-78
2022/06/28 05:44:31;;;;;;;4.93;3.22;;;25.20;99.90;;;;;;5015023;28;20521;-78
2022/06/28 05:46:59;;;;;;;4.43;3.08;;;25.60;99.90;;;;;;5032585;28;20521;-78
2022/06/28 05:49:26;;;;;;;7.32;3.08;;;26.00;99.90;;;;;;5031344;28;20049;-78
2022/06/28 05:51:54;;;;;;;9.45;2.95;;;26.40;99.90;;;;;;5031470;28;20123;-77
2022/06/28 05:54:21;;;;;;;5.95;3.22;;;26.80;98.90;;;;;;5015039;28;20144;-80
2022/06/28 05:56:49;;;;;;;6.20;2.53;;;27.10;98.50;;;;;;5031637;28;20057;-78
2022/06/28 05:59:17;;;;;;;5.93;3.22;;;27.40;96.10;;;;;;5031298;28;20083;-79
2022/06/28 06:01:45;;;;;;;10.73;2.60;;;27.70;95.40;;;;;;5032336;28;20115;-78
2022/06/28 06:04:14;;;;;;;6.57;2.40;;;28.00;93.20;;;;;;5030968;28;20053;-79
2022/06/28 06:06:42;;;;;;;57.83;6.82;;;28.30;91.40;;;;;;5031315;28;20072;-78
2022/06/28 06:09:09;;;;;;;10.23;3.22;;;28.70;90.80;;;;;;5030464;28;20497;-80
2022/06/28 06:11:36;;;;;;;8.55;2.95;;;29.10;87.70;;;;;;5031710;28;20107;-78
2022/06/28 06:14:05;;;;;;;9.45;2.78;;;29.30;84.20;;;;;;5029284;28;20042;-79
2022/06/28 06:16:34;;;;;;;5.63;2.92;;;29.60;83.70;;;;;;5031118;28;20512;-79
2022/06/28 06:19:01;;;;;;;6.72;3.22;;;30.00;81.00;;;;;;5031182;28;20517;-79
2022/06/28 06:21:29;;;;;;;3.22;2.30;;;30.30;79.50;;;;;;5032246;28;20574;-79
2022/06/28 06:23:56;;;;;;;5.18;2.55;;;30.50;77.00;;;;;;5014683;28;20065;-79
2022/06/28 06:26:24;;;;;;;6.22;2.65;;;30.80;75.40;;;;;;5029422;28;20106;-79
2022/06/28 06:28:52;;;;;;;6.65;2.90;;;30.90;73.00;;;;;;5030328;28;20056;-79
2022/06/28 06:31:19;;;;;;;9.27;2.58;;;31.10;73.10;;;;;;5014418;28;20148;-79
2022/06/28 06:34:06;;;;;;;11.00;2.78;;;31.40;71.10;;;;;;5032019;28;20088;-79
2022/06/28 06:36:50;;;;;;;6.88;2.83;;;31.70;70.20;;;;;;5014191;28;20050;-79
2022/06/28 06:39:19;;;;;;;8.40;2.97;;;31.90;68.20;;;;;;5028947;28;20477;-79
2022/06/28 06:41:47;;;;;;;7.45;3.00;;;32.00;67.80;;;;;;5022590;28;20154;-79
2022/06/28 06:44:15;;;;;;;6.05;3.08;;;32.10;67.10;;;;;;5021406;28;20092;-79
2022/06/28 06:46:43;;;;;;;7.07;2.85;;;32.20;65.10;;;;;;5025436;28;20053;-75
2022/06/28 06:49:17;;;;;;;6.88;2.67;;;32.50;63.80;;;;;;5019143;28;20072;-77
2022/06/28 06:51:48;;;;;;;6.85;2.75;;;32.60;62.10;;;;;;5022417;28;20187;-77
2022/06/28 06:54:17;;;;;;;9.77;3.00;;;32.80;64.20;;;;;;5010891;28;20052;-75
2022/06/28 06:56:46;;;;;;;7.60;2.78;;;32.90;62.30;;;;;;5012089;28;20065;-75
2022/06/28 06:59:16;;;;;;;5.88;2.33;;;33.20;59.60;;;;;;5011546;28;20050;-76
2022/06/28 07:01:44;;;;;;;10.15;2.80;;;33.30;59.10;;;;;;5010422;28;20144;-76
2022/06/28 07:04:16;;;;;;;9.38;2.60;;;33.50;59.80;;;;;;5010721;28;20473;-76
2022/06/28 07:06:44;;;;;;;12.88;2.67;;;33.80;59.70;;;;;;5011525;28;20501;-75
2022/06/28 07:09:11;;;;;;;10.50;2.55;;;33.90;58.90;;;;;;5011251;28;20057;-74
2022/06/28 07:11:39;;;;;;;11.57;2.28;;;34.10;59.90;;;;;;5010619;28;20076;-77
2022/06/28 07:14:07;;;;;;;6.90;2.65;;;34.40;58.60;;;;;;5010084;28;20084;-75
2022/06/28 07:16:35;;;;;;;8.32;2.65;;;34.60;57.20;;;;;;4993874;28;20068;-76
2022/06/28 07:19:03;;;;;;;4.82;2.90;;;34.90;57.40;;;;;;5010149;28;20066;-76
2022/06/28 07:21:32;;;;;;;6.57;2.30;;;35.30;57.10;;;;;;5010028;28;20053;-76
2022/06/28 07:23:59;;;;;;;5.28;2.58;;;35.60;55.50;;;;;;5010156;28;20053;-79
2022/06/28 07:26:26;;;;;;;2.80;2.17;;;35.80;55.40;;;;;;5010190;28;20440;-77
2022/06/28 07:28:53;;;;;;;4.75;2.50;;;36.00;55.20;;;;;;5010137;28;20046;-76
2022/06/28 07:31:21;;;;;;;6.00;2.13;;;36.30;55.00;;;;;;4993953;28;20107;-76
2022/06/28 07:33:48;;;;;;;6.25;3.25;;;36.40;55.20;;;;;;5010125;28;20064;-77
2022/06/28 07:36:19;;;;;;;26.27;3.33;;;36.50;54.60;;;;;;5010271;28;20065;-80
2022/06/28 07:38:50;;;;;;;14.70;3.05;;;36.60;54.80;;;;;;4995897;28;20053;-78
2022/06/28 07:41:21;;;;;;;12.23;2.65;;;36.50;54.30;;;;;;5015220;28;20057;-80
2022/06/28 07:44:07;;;;;;;9.18;2.83;;;35.70;53.40;;;;;;5014601;28;20045;-78
2022/06/28 07:46:36;;;;;;;5.10;3.00;;;34.40;55.20;;;;;;5014743;28;20058;-78
2022/06/28 07:49:04;;;;;;;6.68;2.38;;;33.40;56.50;;;;;;5013040;28;20042;-80
2022/06/28 07:54:20;;;;;;;8.73;3.20;;;32.00;58.80;;;;;;5016874;28;20062;-78
2022/06/28 07:57:07;;;;;;;24.85;2.95;;;31.70;59.70;;;;;;5013779;28;20147;-77
2022/06/28 07:59:38;;;;;;;6.75;2.13;;;32.00;60.80;;;;;;5000212;28;20049;-79
2022/06/28 08:02:07;;;;;;;10.90;2.67;;;32.30;58.30;;;;;;5010612;28;20139;-78
2022/06/28 08:04:43;;;;;;;5.03;2.83;;;32.60;59.90;;;;;;5008508;28;20056;-77
2022/06/28 08:07:11;;;;;;;7.90;2.72;;;32.50;58.80;;;;;;5008681;28;20046;-75
2022/06/28 08:09:39;;;;;;;9.90;2.88;;;32.40;60.80;;;;;;4990059;28;20609;-76
2022/06/28 08:12:08;;;;;;;7.20;2.08;;;32.90;60.50;;;;;;5011354;28;20088;-77
2022/06/28 08:14:36;;;;;;;9.50;2.45;;;33.80;58.20;;;;;;5009502;28;20214;-77
2022/06/28 08:17:05;;;;;;;5.70;2.45;;;34.50;56.60;;;;;;5026534;28;20041;-79
2022/06/28 08:19:33;;;;;;;5.18;2.80;;;34.20;55.40;;;;;;4993533;28;20694;-81
2022/06/28 08:22:00;;;;;;;5.80;2.10;;;34.00;55.00;;;;;;5008413;28;20514;-79
2022/06/28 08:24:29;;;;;;;8.80;2.00;;;34.40;54.60;;;;;;5011225;28;20104;-79
2022/06/28 08:26:58;;;;;;;5.95;2.10;;;34.90;54.20;;;;;;5008675;28;20144;-79
2022/06/28 08:29:26;;;;;;;5.18;2.05;;;35.20;52.00;;;;;;5008114;28;20590;-79
2022/06/28 08:32:00;;;;;;;13.65;2.65;;;35.00;53.20;;;;;;5008514;28;20046;-78
2022/06/28 08:34:27;;;;;;;7.03;2.70;;;34.30;53.10;;;;;;5013843;28;20053;-77
2022/06/28 08:36:55;;;;;;;13.30;2.47;;;33.60;54.40;;;;;;4997762;28;20048;-79
2022/06/28 08:39:23;;;;;;;10.30;2.47;;;34.00;56.40;;;;;;5021354;28;20058;-78
2022/06/28 08:41:52;;;;;;;10.15;2.45;;;35.00;53.40;;;;;;5016867;28;20049;-79
2022/06/28 08:44:22;;;;;;;6.85;2.03;;;36.10;52.20;;;;;;5015229;28;20241;-77
2022/06/28 08:46:52;;;;;;;8.68;2.33;;;37.00;51.20;;;;;;5021722;28;20049;-78
2022/06/28 08:49:27;;;;;;;4.03;2.53;;;37.80;49.50;;;;;;5022366;28;20068;-78
2022/06/28 08:51:56;;;;;;;2.45;1.73;;;38.30;47.90;;;;;;5018252;28;20120;-78
2022/06/28 08:54:24;;;;;;;4.97;2.05;;;38.80;47.00;;;;;;5019443;28;20053;-77
2022/06/28 08:56:53;;;;;;;10.98;2.65;;;39.30;47.40;;;;;;5002889;28;20044;-79
2022/06/28 08:59:24;;;;;;;7.60;2.42;;;39.60;45.60;;;;;;5019371;28;20107;-78
2022/06/28 09:01:51;;;;;;;4.78;1.80;;;39.90;45.70;;;;;;5016690;28;20077;-77
2022/06/28 09:04:20;;;;;;;6.13;2.10;;;40.00;44.40;;;;;;5015262;28;20587;-77
2022/06/28 09:06:48;;;;;;;6.78;2.55;;;40.10;44.10;;;;;;5018108;28;20510;-79
2022/06/28 09:09:15;;;;;;;3.90;2.30;;;40.10;44.80;;;;;;5018296;28;20061;-77
2022/06/28 09:11:44;;;;;;;6.00;2.10;;;40.10;44.40;;;;;;5017874;28;20224;-78
2022/06/28 09:17:25;;;;;;;8.50;3.33;;;40.20;44.70;;;;;;5101109;27;20918;-78
2022/06/28 09:19:55;;;;;;;4.07;2.00;;;41.00;44.50;;;;;;5098896;28;20054;-78
2022/06/28 09:22:35;;;;;;;10.18;2.70;;;41.00;42.90;;;;;;5079854;28;20044;-79
2022/06/28 09:25:05;;;;;;;6.60;2.00;;;41.00;43.20;;;;;;5084567;28;20056;-79
2022/06/28 09:27:35;;;;;;;4.97;2.13;;;41.10;42.60;;;;;;5073516;28;20497;-79
2022/06/28 09:30:06;;;;;;;5.53;1.95;;;41.30;42.00;;;;;;5081620;28;20036;-79
2022/06/28 09:32:36;;;;;;;;;;;40.90;41.50;;;;;;5084925;28;20416;-79
2022/06/28 09:35:05;;;;;;;4.40;2.05;;;40.90;41.50;;;;;;5082908;28;19924;-77
2022/06/28 09:37:45;;;;;;;3.75;1.73;;;40.30;41.50;;;;;;5082707;28;20412;-77
2022/06/28 09:40:18;;;;;;;3.67;1.90;;;39.70;42.30;;;;;;5095902;28;20095;-79
2022/06/28 09:42:46;;;;;;;5.68;2.20;;;39.70;44.60;;;;;;5083549;28;20160;-80
2022/06/28 09:45:17;;;;;;;3.92;1.90;;;39.40;42.90;;;;;;5081508;28;20055;-80
2022/06/28 09:47:50;;;;;;;5.82;1.90;;;38.40;43.90;;;;;;5080395;28;20041;-80
2022/06/28 09:50:23;;;;;;;4.53;1.90;;;36.90;45.90;;;;;;5070392;28;20056;-79
2022/06/28 09:52:52;;;;;;;10.23;2.65;;;35.90;47.40;;;;;;5063214;28;20056;-80
2022/06/28 09:55:21;;;;;;;5.47;2.17;;;36.20;47.10;;;;;;5082976;28;20055;-77
2022/06/28 09:57:49;;;;;;;9.10;2.30;;;37.00;47.30;;;;;;5080631;28;20121;-79
2022/06/28 10:00:20;;;;;;;4.82;1.85;;;38.00;46.30;;;;;;5078407;28;20041;-79
2022/06/28 10:02:49;;;;;;;10.23;4.32;;;38.60;44.70;;;;;;5076699;28;20147;-79
2022/06/28 10:05:17;;;;;;;10.65;6.90;;;38.10;45.10;;;;;;5071515;28;20483;-77
2022/06/28 10:07:44;;;;;;;12.13;6.60;;;38.30;46.00;;;;;;5078498;28;20044;-78
2022/06/28 10:10:15;;;;;;;17.58;6.25;;;38.40;45.40;;;;;;5082387;28;20067;-78
2022/06/28 10:15:36;;;;;;;6.72;2.05;;;38.10;46.10;;;;;;5083410;28;20056;-80
2022/06/28 10:18:11;;;;;;;6.07;2.63;;;38.70;45.10;;;;;;5112416;28;20041;-77
2022/06/28 10:20:40;;;;;;;6.75;2.20;;;39.00;44.70;;;;;;5083651;28;20075;-77
2022/06/28 10:23:26;;;;;;;6.10;2.25;;;39.20;44.90;;;;;;5083117;28;20515;-78
2022/06/28 10:26:12;;;;;;;6.28;2.25;;;39.30;45.10;;;;;;5083965;28;20044;-78
2022/06/28 10:28:43;;;;;;;4.20;2.00;;;40.00;43.70;;;;;;5067533;28;20075;-78
2022/06/28 10:31:29;;;;;;;;;;;40.20;43.20;;;;;;5069320;28;20068;-80
2022/06/28 10:34:02;;;;;;;6.70;1.90;;;40.30;43.00;;;;;;5067241;28;19931;-79
2022/06/28 10:36:35;;;;;;;4.53;1.80;;;40.80;42.30;;;;;;5066279;28;20085;-79
2022/06/28 10:39:23;;;;;;;3.28;1.80;;;41.30;41.70;;;;;;5064875;28;20060;-79
2022/06/28 10:41:53;;;;;;;6.93;1.90;;;41.10;41.60;;;;;;5067661;28;20052;-78
2022/06/28 10:44:26;;;;;;;7.65;2.50;;;40.40;42.40;;;;;;5050649;28;20121;-78
2022/06/28 10:47:11;;;;;;;5.43;2.92;;;40.20;42.80;;;;;;5069199;28;20075;-78
2022/06/28 10:49:59;;;;;;;3.92;2.42;;;40.60;41.80;;;;;;5065360;28;20143;-78
2022/06/28 10:52:30;;;;;;;7.82;2.40;;;41.20;41.40;;;;;;5065422;28;20048;-78
2022/06/28 10:55:20;;;;;;;8.20;2.58;;;41.30;41.30;;;;;;5067028;28;20063;-78
2022/06/28 10:57:48;;;;;;;6.85;1.95;;;41.60;40.80;;;;;;5067880;28;20135;-78
2022/06/28 11:00:26;;;;;;;2.88;2.20;;;41.50;40.60;;;;;;5064235;28;20384;-78
2022/06/28 11:03:02;;;;;;;6.40;2.10;;;41.60;41.10;;;;;;5064888;28;20048;-81
2022/06/28 11:05:47;;;;;;;6.03;2.17;;;41.90;40.80;;;;;;5069068;28;20098;-80
2022/06/28 11:08:34;;;;;;;4.05;2.53;;;41.70;40.10;;;;;;5069033;28;20516;-83
2022/06/28 11:11:03;;;;;;;5.20;1.95;;;41.20;42.10;;;;;;5071285;28;20052;-82
2022/06/28 11:13:34;;;;;;;2.60;1.98;;;41.40;41.30;;;;;;5069376;28;20048;-82
2022/06/28 11:16:02;;;;;;;;;;;41.60;40.60;;;;;;5070471;28;20063;-81
2022/06/28 11:18:31;;;;;;;5.97;2.33;;;41.30;40.60;;;;;;5069132;28;19993;-82
2022/06/28 11:21:01;;;;;;;4.43;1.80;;;41.20;41.00;;;;;;5051628;28;20095;-82
2022/06/28 11:23:31;;;;;;;4.03;1.92;;;40.90;40.80;;;;;;5069121;28;20097;-82
2022/06/28 11:28:53;;;;;;;8.07;1.95;;;41.20;41.20;;;;;;5067952;28;20131;-81
2022/06/28 11:31:27;;;;;;;6.18;3.03;;;41.40;41.00;;;;;;5069230;28;20044;-82
2022/06/28 11:33:56;;;;;;;9.27;2.10;;;41.90;41.30;;;;;;5051317;28;20048;-82
2022/06/28 11:36:31;;;;;;;6.25;2.30;;;42.20;40.30;;;;;;5067336;28;20472;-81
2022/06/28 11:39:03;;;;;;;6.05;2.47;;;42.60;40.40;;;;;;5066513;28;20155;-82
2022/06/28 11:41:32;;;;;;;3.30;1.80;;;42.90;40.30;;;;;;5053970;28;20762;-83
2022/06/28 11:44:00;;;;;;;6.10;2.35;;;42.50;40.70;;;;;;5070413;28;20513;-84
2022/06/28 11:46:29;;;;;;;4.05;1.90;;;42.60;40.60;;;;;;5070187;28;20220;-83
2022/06/28 11:48:57;;;;;;;4.10;2.10;;;42.90;39.80;;;;;;5071376;28;20552;-83
2022/06/28 11:51:36;;;;;;;8.50;2.40;;;43.10;39.50;;;;;;5070314;28;20044;-82
2022/06/28 11:54:08;;;;;;;4.65;2.17;;;43.00;39.80;;;;;;5052979;28;20049;-82
2022/06/28 11:56:44;;;;;;;6.55;2.17;;;43.20;40.00;;;;;;5071498;28;20086;-82
2022/06/28 11:59:14;;;;;;;4.63;2.05;;;43.40;40.10;;;;;;5069996;28;20524;-82
2022/06/28 12:01:43;;;;;;;4.07;1.77;;;43.50;40.30;;;;;;5069831;28;20393;-83
2022/06/28 12:04:11;;;;;;;8.00;2.10;;;43.60;39.30;;;;;;5070215;28;20413;-83
2022/06/28 12:06:45;;;;;;;4.45;2.30;;;43.40;39.60;;;;;;5071121;28;20048;-82
2022/06/28 12:09:15;;;;;;;5.22;2.50;;;43.00;39.80;;;;;;5071484;28;20135;-83
2022/06/28 12:11:51;;;;;;;5.43;2.03;;;42.80;39.80;;;;;;5072137;28;20048;-82
2022/06/28 12:14:20;;;;;;;5.03;2.10;;;42.70;40.00;;;;;;5072045;28;20075;-83
2022/06/28 12:16:49;;;;;;;5.15;2.40;;;42.80;40.50;;;;;;5069917;28;20060;-83
2022/06/28 12:19:17;;;;;;;5.15;2.25;;;43.00;40.50;;;;;;5070640;28;20479;-82
2022/06/28 12:22:06;;;;;;;4.72;2.17;;;43.00;40.40;;;;;;5070772;28;20511;-82
2022/06/28 12:24:43;;;;;;;4.57;2.17;;;43.00;40.30;;;;;;5071560;28;20135;-82
2022/06/28 12:27:12;;;;;;;2.97;2.35;;;43.10;41.10;;;;;;5053459;28;20052;-82
2022/06/28 12:29:41;;;;;;;2.22;1.85;;;43.10;40.50;;;;;;5070046;28;20562;-82
2022/06/28 12:32:09;;;;;;;4.85;2.13;;;43.10;40.50;;;;;;5071582;28;20590;-83
2022/06/28 12:34:40;;;;;;;5.05;2.30;;;43.20;40.70;;;;;;5069311;28;20048;-83
2022/06/28 12:37:12;;;;;;;4.63;2.10;;;43.30;40.60;;;;;;5071785;28;20143;-83
2022/06/28 12:39:40;;;;;;;5.28;1.90;;;43.40;40.50;;;;;;5071958;28;20048;-82
2022/06/28 12:42:08;;;;;;;3.08;2.10;;;43.20;40.20;;;;;;5071891;28;20098;-82
2022/06/28 12:44:35;;;;;;;3.63;2.00;;;42.70;40.80;;;;;;5071694;28;20137;-82
2022/06/28 12:47:04;;;;;;;2.53;2.00;;;42.70;41.00;;;;;;5071752;28;20044;-82
2022/06/28 12:49:31;;;;;;;3.78;2.10;;;42.70;41.10;;;;;;5071920;28;20049;-82
2022/06/28 12:51:59;;;;;;;6.40;2.30;;;42.60;40.80;;;;;;5071887;28;20572;-82
2022/06/28 12:54:28;;;;;;;4.95;2.20;;;42.70;41.30;;;;;;5070960;28;20159;-82
2022/06/28 12:56:56;;;;;;;9.23;2.08;;;42.80;40.80;;;;;;5070849;28;20055;-82
2022/06/28 12:59:23;;;;;;;4.57;2.00;;;43.00;41.00;;;;;;5071169;28;20132;-83
2022/06/28 13:01:51;;;;;;;6.78;2.08;;;43.20;40.50;;;;;;5070478;28;20413;-81
2022/06/28 13:04:19;;;;;;;2.10;2.00;;;43.30;40.20;;;;;;5070943;28;20052;-80
2022/06/28 13:06:48;;;;;;;7.75;2.10;;;43.50;40.00;;;;;;5070947;28;20095;-84
2022/06/28 13:09:16;;;;;;;4.70;2.35;;;43.60;39.60;;;;;;5071048;28;20049;-81
2022/06/28 13:11:45;;;;;;;7.60;1.90;;;43.50;39.90;;;;;;5070977;28;20057;-82
2022/06/28 13:14:12;;;;;;;6.65;1.85;;;43.40;39.60;;;;;;5068922;28;20397;-84
2022/06/28 13:16:39;;;;;;;2.55;2.15;;;43.30;39.70;;;;;;5052266;28;20483;-81
2022/06/28 13:19:07;;;;;;;3.28;1.70;;;43.30;40.00;;;;;;5052753;28;20052;-82
2022/06/28 13:21:35;;;;;;;5.30;1.77;;;43.30;39.80;;;;;;5070538;28;20044;-81